createdAt,value
2022-10-20T00:01:31.281Z,1.20
2022-10-20T00:04:01.558Z,1.53
2022-10-20T00:06:33.217Z,1.17
2022-10-20T00:09:04.291Z,1.30
2022-10-20T00:11:34.057Z,1.20
2022-10-20T00:14:03.742Z,1.40
2022-10-20T00:16:36.503Z,1.20
2022-10-20T00:19:07.445Z,1.30
2022-10-20T00:21:36.385Z,1.20
2022-10-20T00:24:05.548Z,1.37
2022-10-20T00:26:34.524Z,1.30
2022-10-20T00:29:05.225Z,1.40
2022-10-20T00:31:34.610Z,1.17
2022-10-20T00:34:03.559Z,1.60
2022-10-20T00:36:33.829Z,1.47
2022-10-20T00:39:05.396Z,1.07
2022-10-20T00:41:34.825Z,1.33
2022-10-20T00:44:24.412Z,1.00
2022-10-20T00:46:53.420Z,1.50
2022-10-20T00:49:24.326Z,1.10
2022-10-20T00:51:55.080Z,1.10
2022-10-20T00:54:27.789Z,1.40
2022-10-20T00:56:58.289Z,1.33
2022-10-20T00:59:30.955Z,1.30
2022-10-20T01:02:02.178Z,1.27
2022-10-20T01:04:32.731Z,1.10
2022-10-20T01:07:03.421Z,1.10
2022-10-20T01:09:34.483Z,1.23
2022-10-20T01:12:16.541Z,1.30
2022-10-20T01:14:53.049Z,1.00
2022-10-20T01:17:30.375Z,1.13
2022-10-20T01:20:30.188Z,1.10
2022-10-20T01:23:34.622Z,1.17
2022-10-20T01:26:26.221Z,1.10
2022-10-20T01:28:59.038Z,1.30
2022-10-20T01:31:34.458Z,1.50
2022-10-20T01:34:09.809Z,1.00
2022-10-20T01:36:46.102Z,1.40
2022-10-20T01:39:23.514Z,1.40
2022-10-20T01:41:58.163Z,1.13
2022-10-20T01:44:31.824Z,1.10
2022-10-20T01:47:02.216Z,1.10
2022-10-20T01:49:31.347Z,1.40
2022-10-20T01:52:01.244Z,1.23
2022-10-20T01:54:31.306Z,1.50
2022-10-20T01:57:17.449Z,1.30
2022-10-20T02:00:02.311Z,1.20
2022-10-20T02:02:49.300Z,1.30
2022-10-20T02:05:31.453Z,1.10
2022-10-20T02:08:10.303Z,0.97
2022-10-20T02:10:47.084Z,1.20
2022-10-20T02:13:19.375Z,1.00
2022-10-20T02:15:53.517Z,1.33
2022-10-20T02:18:27.049Z,1.20
2022-10-20T02:20:58.741Z,1.27
2022-10-20T02:23:33.730Z,1.00
2022-10-20T02:26:07.364Z,1.33
2022-10-20T02:28:39.980Z,1.47
2022-10-20T02:31:10.729Z,1.47
2022-10-20T02:33:41.020Z,1.30
2022-10-20T02:36:16.616Z,1.10
2022-10-20T02:38:45.890Z,1.17
2022-10-20T02:41:14.869Z,1.07
2022-10-20T02:43:43.807Z,1.30
2022-10-20T02:48:47.967Z,1.23
2022-10-20T02:51:17.322Z,1.47
2022-10-20T02:53:46.353Z,1.40
2022-10-20T02:56:15.371Z,1.60
2022-10-20T02:58:44.376Z,1.70
2022-10-20T03:01:14.674Z,1.33
2022-10-20T03:03:43.689Z,1.30
2022-10-20T03:06:14.694Z,1.13
2022-10-20T03:08:44.237Z,1.40
2022-10-20T03:11:13.263Z,1.63
2022-10-20T03:13:42.375Z,1.40
2022-10-20T03:16:11.307Z,1.50
2022-10-20T03:18:41.641Z,1.63
2022-10-20T03:21:10.681Z,1.77
2022-10-20T03:23:39.629Z,1.17
2022-10-20T03:26:11.715Z,1.40
2022-10-20T03:28:41.093Z,1.37
2022-10-20T03:31:11.024Z,1.63
2022-10-20T03:33:41.414Z,1.27
2022-10-20T03:36:11.325Z,1.50
2022-10-20T03:38:43.157Z,1.67
2022-10-20T03:41:12.511Z,1.40
2022-10-20T03:43:41.933Z,1.90
2022-10-20T03:46:12.759Z,1.63
2022-10-20T03:48:43.323Z,1.73
2022-10-20T03:51:14.346Z,1.90
2022-10-20T03:53:43.411Z,1.67
2022-10-20T03:56:16.945Z,1.33
2022-10-20T03:58:46.240Z,1.60
2022-10-20T04:01:16.995Z,1.80
2022-10-20T04:03:47.477Z,1.53
2022-10-20T04:06:16.717Z,1.43
2022-10-20T04:08:45.687Z,1.50
2022-10-20T04:11:14.736Z,1.60
2022-10-20T04:13:43.775Z,1.60
2022-10-20T04:16:12.703Z,1.60
2022-10-20T04:18:41.806Z,2.00
2022-10-20T04:21:12.086Z,1.60
2022-10-20T04:23:41.014Z,1.97
2022-10-20T04:26:10.900Z,1.60
2022-10-20T04:28:39.965Z,2.07
2022-10-20T04:31:09.705Z,1.77
2022-10-20T04:33:38.864Z,2.17
2022-10-20T04:36:09.718Z,2.10
2022-10-20T04:38:40.098Z,2.37
2022-10-20T04:41:09.058Z,2.10
2022-10-20T04:43:37.996Z,2.77
2022-10-20T04:46:08.730Z,2.37
2022-10-20T04:48:38.550Z,2.00
2022-10-20T04:51:09.754Z,2.40
2022-10-20T04:53:40.492Z,2.20
2022-10-20T04:56:12.618Z,3.00
2022-10-20T04:58:41.663Z,3.00
2022-10-20T05:01:11.700Z,3.10
2022-10-20T05:03:40.648Z,2.70
2022-10-20T05:06:12.055Z,2.70
2022-10-20T05:08:43.449Z,3.00
2022-10-20T05:11:13.499Z,2.97
2022-10-20T05:13:43.037Z,2.93
2022-10-20T05:16:12.762Z,2.43
2022-10-20T05:18:42.025Z,2.93
2022-10-20T05:21:12.897Z,3.27
2022-10-20T05:23:44.159Z,2.40
2022-10-20T05:26:15.194Z,2.70
2022-10-20T05:28:45.850Z,2.77
2022-10-20T05:31:16.081Z,2.50
2022-10-20T05:33:47.098Z,2.47
2022-10-20T05:36:21.186Z,2.60
2022-10-20T05:38:53.739Z,2.00
2022-10-20T05:41:24.448Z,2.83
2022-10-20T05:43:57.186Z,2.50
2022-10-20T05:46:27.150Z,3.43
2022-10-20T05:48:58.228Z,2.83
2022-10-20T05:51:28.865Z,2.33
2022-10-20T05:54:00.318Z,2.53
2022-10-20T05:56:30.745Z,2.97
2022-10-20T05:58:59.813Z,2.40
2022-10-20T06:01:39.716Z,3.10
2022-10-20T06:04:09.578Z,2.63
2022-10-20T06:06:38.525Z,3.10
2022-10-20T06:09:09.860Z,3.13
2022-10-20T06:11:39.966Z,3.20
2022-10-20T06:14:09.576Z,3.13
2022-10-20T06:16:39.016Z,3.03
2022-10-20T06:19:07.970Z,2.83
2022-10-20T06:21:38.755Z,2.90
2022-10-20T06:24:10.716Z,2.53
2022-10-20T06:26:40.274Z,2.57
2022-10-20T06:29:12.050Z,2.87
2022-10-20T06:31:43.013Z,2.90
2022-10-20T06:34:14.853Z,3.23
2022-10-20T06:36:45.026Z,3.43
2022-10-20T06:39:17.464Z,2.97
2022-10-20T06:41:50.455Z,2.23
2022-10-20T06:44:22.844Z,2.67
2022-10-20T06:46:53.293Z,2.50
2022-10-20T06:49:22.729Z,2.70
2022-10-20T06:51:51.833Z,2.70
2022-10-20T06:54:22.117Z,2.80
2022-10-20T06:56:51.026Z,2.57
2022-10-20T06:59:19.982Z,2.20
2022-10-20T07:01:48.965Z,2.63
2022-10-20T07:04:18.183Z,2.50
2022-10-20T07:06:47.877Z,2.23
2022-10-20T07:09:18.986Z,2.53
2022-10-20T07:11:52.519Z,2.17
2022-10-20T07:14:21.920Z,2.30
2022-10-20T07:16:50.853Z,2.43
2022-10-20T07:19:19.822Z,2.50
2022-10-20T07:21:48.783Z,2.00
2022-10-20T07:24:17.844Z,3.00
2022-10-20T07:26:48.462Z,2.30
2022-10-20T07:29:17.487Z,2.30
2022-10-20T07:31:48.439Z,2.30
2022-10-20T07:34:25.714Z,2.47
2022-10-20T07:36:56.254Z,3.17
2022-10-20T07:39:25.955Z,2.87
2022-10-20T07:41:56.584Z,2.30
2022-10-20T07:44:25.507Z,2.70
2022-10-20T07:46:54.544Z,2.50
2022-10-20T07:49:43.887Z,2.40
2022-10-20T07:52:13.002Z,2.10
2022-10-20T07:54:42.155Z,2.20
2022-10-20T07:57:12.619Z,2.83
2022-10-20T07:59:41.766Z,2.20
2022-10-20T08:02:13.554Z,2.20
2022-10-20T08:04:44.055Z,2.20
2022-10-20T08:07:13.177Z,1.90
2022-10-20T08:09:42.310Z,2.53
2022-10-20T08:12:12.697Z,2.40
2022-10-20T08:14:41.658Z,2.50
2022-10-20T08:17:10.612Z,2.40
2022-10-20T08:22:25.419Z,2.00
2022-10-20T08:24:54.999Z,1.80
2022-10-20T08:27:25.280Z,2.20
2022-10-20T08:30:06.187Z,2.17
2022-10-20T08:32:44.470Z,2.30
2022-10-20T08:35:13.431Z,1.80
2022-10-20T08:37:42.346Z,1.80
2022-10-20T08:40:16.147Z,1.70
2022-10-20T08:42:47.697Z,1.57
2022-10-20T08:45:19.079Z,1.20
2022-10-20T08:47:51.322Z,1.17
2022-10-20T08:50:21.871Z,1.50
2022-10-20T08:52:55.309Z,1.70
2022-10-20T08:55:38.616Z,1.40
2022-10-20T08:58:14.661Z,1.73
2022-10-20T09:00:44.384Z,1.20
2022-10-20T09:03:18.514Z,1.70
2022-10-20T09:05:51.977Z,1.57
2022-10-20T09:08:22.859Z,1.43
2022-10-20T09:10:54.960Z,1.30
2022-10-20T09:13:27.951Z,1.50
2022-10-20T09:16:03.523Z,1.00
2022-10-20T09:18:32.862Z,1.30
2022-10-20T09:21:06.186Z,1.10
2022-10-20T09:23:42.007Z,0.83
2022-10-20T09:26:30.339Z,0.93
2022-10-20T09:29:13.498Z,1.10
2022-10-20T09:31:44.546Z,0.93
2022-10-20T09:34:25.228Z,1.20
2022-10-20T09:36:58.826Z,0.97
2022-10-20T09:39:30.593Z,1.10
2022-10-20T09:42:06.657Z,0.83
2022-10-20T09:44:49.792Z,0.90
2022-10-20T09:47:20.210Z,0.90
2022-10-20T09:49:57.091Z,0.97
2022-10-20T09:52:34.488Z,0.80
2022-10-20T09:55:07.739Z,1.00
2022-10-20T09:57:37.169Z,1.07
2022-10-20T10:00:25.501Z,0.83
2022-10-20T10:03:21.117Z,1.10
2022-10-20T10:05:54.637Z,1.03
2022-10-20T10:08:25.794Z,0.87
2022-10-20T10:11:03.137Z,1.20
2022-10-20T10:13:39.899Z,1.00
2022-10-20T10:16:14.037Z,0.80
2022-10-20T10:18:48.372Z,1.20
2022-10-20T10:21:18.493Z,0.90
2022-10-20T10:23:55.951Z,1.00
2022-10-20T10:26:43.751Z,1.30
2022-10-20T10:29:21.037Z,1.20
2022-10-20T10:31:58.676Z,1.00
2022-10-20T10:34:44.597Z,1.00
2022-10-20T10:37:17.182Z,0.90
2022-10-20T10:39:46.315Z,1.07
2022-10-20T10:42:43.194Z,1.63
2022-10-20T10:45:19.622Z,0.90
2022-10-20T10:48:16.360Z,1.08
2022-10-20T10:50:52.414Z,0.80
2022-10-20T10:53:34.134Z,0.90
2022-10-20T10:56:14.940Z,0.85
2022-10-20T10:58:48.009Z,1.10
2022-10-20T11:01:36.014Z,1.15
2022-10-20T11:04:49.981Z,0.95
2022-10-20T11:07:30.983Z,1.40
2022-10-20T11:10:06.870Z,1.00
2022-10-20T11:13:01.681Z,1.10
2022-10-20T11:15:52.800Z,0.90
2022-10-20T11:18:37.465Z,1.27
2022-10-20T11:21:23.403Z,1.00
2022-10-20T11:24:07.041Z,1.17
2022-10-20T11:26:38.596Z,1.13
2022-10-20T11:29:13.542Z,0.93
2022-10-20T11:31:47.564Z,1.40
2022-10-20T11:34:22.139Z,1.08
2022-10-20T11:37:01.903Z,1.20
2022-10-20T11:39:38.790Z,1.02
2022-10-20T11:42:20.474Z,1.25
2022-10-20T11:44:50.333Z,1.60
2022-10-20T11:47:26.763Z,1.30
2022-10-20T11:49:55.788Z,1.10
2022-10-20T11:53:00.383Z,1.30
2022-10-20T11:55:56.987Z,1.02
2022-10-20T11:58:41.637Z,1.17
2022-10-20T12:01:38.518Z,1.40
2022-10-20T12:04:38.957Z,1.10
2022-10-20T12:07:33.767Z,1.27
2022-10-20T12:10:35.763Z,1.48
2022-10-20T12:13:25.637Z,1.20
2022-10-20T12:15:55.022Z,1.52
2022-10-20T12:18:29.615Z,1.60
2022-10-20T12:21:01.566Z,1.48
2022-10-20T12:24:05.487Z,1.50
2022-10-20T12:27:17.559Z,1.58
2022-10-20T12:29:58.153Z,1.65
2022-10-20T12:32:52.693Z,1.42
2022-10-20T12:35:57.699Z,1.50
2022-10-20T12:38:27.449Z,1.60
2022-10-20T12:40:59.955Z,1.60
2022-10-20T12:43:53.412Z,1.52
2022-10-20T12:46:27.226Z,1.38
2022-10-20T12:49:00.094Z,1.85
2022-10-20T12:51:40.685Z,1.67
2022-10-20T12:54:22.161Z,1.67
2022-10-20T12:56:52.002Z,1.85
2022-10-20T12:59:39.125Z,1.98
2022-10-20T13:02:45.943Z,1.70
2022-10-20T13:05:44.397Z,1.95
2022-10-20T13:08:28.819Z,1.85
2022-10-20T13:11:18.992Z,1.90
2022-10-20T13:14:03.836Z,1.67
2022-10-20T13:16:35.112Z,1.85
2022-10-20T13:19:09.300Z,1.95
2022-10-20T13:21:38.543Z,1.83
2022-10-20T13:24:14.737Z,1.73
2022-10-20T13:26:54.313Z,2.05
2022-10-20T13:29:36.910Z,1.80
2022-10-20T13:32:16.582Z,1.77
2022-10-20T13:34:52.799Z,1.50
2022-10-20T13:37:42.684Z,2.13
2022-10-20T13:40:23.810Z,1.70
2022-10-20T13:43:08.370Z,2.08
2022-10-20T13:46:02.064Z,1.98
2022-10-20T13:48:45.940Z,1.70
2022-10-20T13:51:20.696Z,2.20
2022-10-20T13:53:53.882Z,1.67
2022-10-20T13:56:34.879Z,1.80
2022-10-20T13:59:08.694Z,1.30
2022-10-20T14:01:38.987Z,1.60
2022-10-20T14:04:25.749Z,1.50
2022-10-20T14:06:54.996Z,1.75
2022-10-20T14:09:26.166Z,1.60
2022-10-20T14:11:59.899Z,1.80
2022-10-20T14:14:30.281Z,1.90
2022-10-20T14:17:03.795Z,1.60
2022-10-20T14:19:33.762Z,1.80
2022-10-20T14:22:17.061Z,1.67
2022-10-20T14:24:48.339Z,1.63
2022-10-20T14:27:22.212Z,1.70
2022-10-20T14:29:52.453Z,2.00
2022-10-20T14:32:25.010Z,2.03
2022-10-20T14:34:59.265Z,2.00
2022-10-20T14:37:32.585Z,2.13
2022-10-20T14:40:03.353Z,2.15
2022-10-20T14:42:34.330Z,2.10
2022-10-20T14:45:04.708Z,1.90
2022-10-20T14:47:40.372Z,2.30
2022-10-20T14:50:23.498Z,5.40
2022-10-20T14:52:54.336Z,2.23
2022-10-20T14:55:35.094Z,1.97
2022-10-20T14:58:05.129Z,2.33
2022-10-20T15:00:37.120Z,2.53
2022-10-20T15:03:10.455Z,2.43
2022-10-20T15:05:44.290Z,2.50
2022-10-20T15:08:25.904Z,2.40
2022-10-20T15:10:55.122Z,2.50
2022-10-20T15:13:28.003Z,2.17
2022-10-20T15:15:58.841Z,1.70
2022-10-20T15:18:30.272Z,2.70
2022-10-20T15:20:59.250Z,2.27
2022-10-20T15:23:29.466Z,2.57
2022-10-20T15:26:02.844Z,2.60
2022-10-20T15:28:40.340Z,2.40
2022-10-20T15:31:18.422Z,2.43
2022-10-20T15:33:49.124Z,2.00
2022-10-20T15:36:21.233Z,2.67
2022-10-20T15:38:51.730Z,2.67
2022-10-20T15:41:22.931Z,2.87
2022-10-20T15:43:51.935Z,2.43
2022-10-20T15:46:21.807Z,2.37
2022-10-20T15:48:52.118Z,2.53
2022-10-20T15:51:25.198Z,2.17
2022-10-20T15:53:54.349Z,2.47
2022-10-20T15:56:23.649Z,2.50
2022-10-20T15:58:53.153Z,2.60
2022-10-20T16:01:23.100Z,2.67
2022-10-20T16:03:53.550Z,2.60
2022-10-20T16:06:23.221Z,2.40
2022-10-20T16:08:52.822Z,2.27
2022-10-20T16:11:23.141Z,2.07
2022-10-20T16:13:52.076Z,2.53
2022-10-20T16:16:21.710Z,2.57
2022-10-20T16:18:52.091Z,2.50
2022-10-20T16:21:21.026Z,3.20
2022-10-20T16:23:49.932Z,2.40
2022-10-20T16:26:21.018Z,2.60
2022-10-20T16:28:49.970Z,2.40
2022-10-20T16:31:18.982Z,2.73
2022-10-20T16:33:48.656Z,2.90
2022-10-20T16:36:21.585Z,2.70
2022-10-20T16:38:55.024Z,3.17
2022-10-20T16:41:24.180Z,3.00
2022-10-20T16:43:55.369Z,2.90
2022-10-20T16:46:27.941Z,2.60
2022-10-20T16:48:57.165Z,2.80
2022-10-20T16:51:27.674Z,3.10
2022-10-20T16:54:00.759Z,2.80
2022-10-20T16:56:32.201Z,3.07
2022-10-20T16:59:01.837Z,3.37
2022-10-20T17:01:31.783Z,2.80
2022-10-20T17:04:00.804Z,2.90
2022-10-20T17:06:31.754Z,2.77
2022-10-20T17:09:01.102Z,2.93
2022-10-20T17:11:32.340Z,2.63
2022-10-20T17:14:01.677Z,2.70
2022-10-20T17:16:32.643Z,2.50
2022-10-20T17:19:03.254Z,2.70
2022-10-20T17:21:34.721Z,2.47
2022-10-20T17:24:04.246Z,2.67
2022-10-20T17:26:33.393Z,3.50
2022-10-20T17:29:03.039Z,2.93
2022-10-20T17:31:32.443Z,2.77
2022-10-20T17:34:01.682Z,2.33
2022-10-20T17:36:32.310Z,2.33
2022-10-20T17:39:03.319Z,2.77
2022-10-20T17:41:32.459Z,2.00
2022-10-20T17:44:02.298Z,2.40
2022-10-20T17:46:31.890Z,2.50
2022-10-20T17:49:02.069Z,2.90
2022-10-20T17:51:34.762Z,3.00
2022-10-20T17:54:04.845Z,2.43
2022-10-20T17:56:36.394Z,3.00
2022-10-20T17:59:07.634Z,2.90
2022-10-20T18:01:39.288Z,2.80
2022-10-20T18:04:10.673Z,2.83
2022-10-20T18:06:41.792Z,3.20
2022-10-20T18:09:12.746Z,2.87
2022-10-20T18:11:44.184Z,3.27
2022-10-20T18:14:13.185Z,2.90
2022-10-20T18:16:42.415Z,2.70
2022-10-20T18:19:15.656Z,3.10
2022-10-20T18:21:46.356Z,3.10
2022-10-20T18:24:17.270Z,2.97
2022-10-20T18:26:47.418Z,3.37
2022-10-20T18:29:17.232Z,3.13
2022-10-20T18:31:48.047Z,2.77
2022-10-20T18:34:20.493Z,3.00
2022-10-20T18:36:51.750Z,3.40
2022-10-20T18:39:20.809Z,2.77
2022-10-20T18:41:52.632Z,2.97
2022-10-20T18:44:21.821Z,2.97
2022-10-20T18:46:51.327Z,3.03
2022-10-20T18:49:21.532Z,3.27
2022-10-20T18:51:52.290Z,3.27
2022-10-20T18:54:23.592Z,3.40
2022-10-20T18:56:52.756Z,3.50
2022-10-20T18:59:23.069Z,3.10
2022-10-20T19:01:52.208Z,2.73
2022-10-20T19:04:21.225Z,3.27
2022-10-20T19:06:54.367Z,3.13
2022-10-20T19:09:23.549Z,3.43
2022-10-20T19:11:52.610Z,3.33
2022-10-20T19:14:21.684Z,3.70
2022-10-20T19:16:51.006Z,3.20
2022-10-20T19:19:20.253Z,3.70
2022-10-20T19:21:49.433Z,2.83
2022-10-20T19:24:21.848Z,3.60
2022-10-20T19:27:02.436Z,3.23
2022-10-20T19:29:37.684Z,3.07
2022-10-20T19:32:07.111Z,3.20
2022-10-20T19:34:38.103Z,3.57
2022-10-20T19:37:07.395Z,3.27
2022-10-20T19:39:39.911Z,3.70
2022-10-20T19:42:09.618Z,3.80
2022-10-20T19:44:39.003Z,3.43
2022-10-20T19:47:19.178Z,3.70
2022-10-20T19:49:48.234Z,3.73
2022-10-20T19:52:19.299Z,3.70
2022-10-20T19:54:49.923Z,3.30
2022-10-20T19:57:18.919Z,3.57
2022-10-20T19:59:48.239Z,4.07
2022-10-20T20:02:17.225Z,3.73
2022-10-20T20:04:46.253Z,3.90
2022-10-20T20:07:15.306Z,3.77
2022-10-20T20:09:44.682Z,3.40
2022-10-20T20:12:16.735Z,3.73
2022-10-20T20:14:45.814Z,3.53
2022-10-20T20:17:17.857Z,3.60
2022-10-20T20:19:46.912Z,3.73
2022-10-20T20:22:16.018Z,4.30
2022-10-20T20:24:45.069Z,4.10
2022-10-20T20:27:15.404Z,3.70
2022-10-20T20:29:44.582Z,3.83
2022-10-20T20:32:13.943Z,3.70
2022-10-20T20:34:43.212Z,3.90
2022-10-20T20:37:14.243Z,4.30
2022-10-20T20:39:43.240Z,4.57
2022-10-20T20:42:12.182Z,5.57
2022-10-20T20:44:42.512Z,4.30
2022-10-20T20:47:11.590Z,4.40
2022-10-20T20:49:40.589Z,5.00
2022-10-20T20:52:09.634Z,5.00
2022-10-20T20:54:38.615Z,4.87
2022-10-20T20:57:07.602Z,4.83
2022-10-20T20:59:36.628Z,4.80
2022-10-20T21:02:07.511Z,4.50
2022-10-20T21:04:36.619Z,4.10
2022-10-20T21:07:05.746Z,4.60
2022-10-20T21:09:34.850Z,4.73
2022-10-20T21:12:05.342Z,4.53
2022-10-20T21:14:34.364Z,5.20
2022-10-20T21:17:03.371Z,4.90
2022-10-20T21:19:33.664Z,4.83
2022-10-20T21:22:02.640Z,5.20
2022-10-20T21:24:31.587Z,5.03
2022-10-20T21:27:00.604Z,4.80
2022-10-20T21:29:29.573Z,5.03
2022-10-20T21:31:58.932Z,4.37
2022-10-20T21:34:28.563Z,5.00
2022-10-20T21:36:58.865Z,4.83
2022-10-20T21:39:28.153Z,5.47
2022-10-20T21:41:57.269Z,5.17
2022-10-20T21:44:26.217Z,5.23
2022-10-20T21:46:55.206Z,5.30
2022-10-20T21:49:25.366Z,5.00
2022-10-20T21:51:56.725Z,4.77
2022-10-20T21:54:28.928Z,4.77
2022-10-20T21:56:58.266Z,5.37
2022-10-20T21:59:28.763Z,5.10
2022-10-20T22:01:58.983Z,5.57
2022-10-20T22:04:29.637Z,5.47
2022-10-20T22:06:59.548Z,5.50
2022-10-20T22:09:30.210Z,5.23
2022-10-20T22:11:59.577Z,4.80
2022-10-20T22:14:30.440Z,4.97
2022-10-20T22:16:59.820Z,4.60
2022-10-20T22:19:28.897Z,5.20
2022-10-20T22:21:59.329Z,5.30
2022-10-20T22:24:30.492Z,5.37
2022-10-20T22:26:59.621Z,5.60
2022-10-20T22:29:29.559Z,5.33
2022-10-20T22:31:58.528Z,5.50
2022-10-20T22:34:27.487Z,5.37
2022-10-20T22:36:56.407Z,5.67
2022-10-20T22:39:25.427Z,5.73
2022-10-20T22:41:55.732Z,4.63
2022-10-20T22:44:24.723Z,4.77
2022-10-20T22:46:53.644Z,5.23
2022-10-20T22:49:22.585Z,5.80
2022-10-20T22:51:51.569Z,5.37
2022-10-20T22:54:20.645Z,5.07
2022-10-20T22:56:52.513Z,4.97
2022-10-20T22:59:22.859Z,5.57
2022-10-20T23:01:51.847Z,5.63
2022-10-20T23:04:21.639Z,5.53
2022-10-20T23:06:50.730Z,5.20
2022-10-20T23:09:19.752Z,6.20
2022-10-20T23:11:48.716Z,5.10
2022-10-20T23:14:17.735Z,5.50
2022-10-20T23:16:48.067Z,5.40
2022-10-20T23:19:17.060Z,6.20
2022-10-20T23:21:46.063Z,6.20
2022-10-20T23:24:15.090Z,5.73
2022-10-20T23:26:44.425Z,5.97
2022-10-20T23:29:13.473Z,5.23
2022-10-20T23:31:42.363Z,5.93
2022-10-20T23:34:12.657Z,6.70
2022-10-20T23:36:41.712Z,5.87
2022-10-20T23:39:10.873Z,6.20
2022-10-20T23:41:39.844Z,6.53
2022-10-20T23:44:09.347Z,6.53
2022-10-20T23:46:38.441Z,6.30
2022-10-20T23:49:07.888Z,6.03
2022-10-20T23:51:38.203Z,6.20
2022-10-20T23:54:07.219Z,6.20
2022-10-20T23:56:36.169Z,6.20
2022-10-20T23:59:05.317Z,6.87
